This is the latest recevied weather packets stored in our database for station/object K1ABC. If no packets are shown the sender has not sent any weather packets the latest 10 day(s).
| Time | Temp. | Humidity | Pressure | Rain* | Wind** | Luminosity | Snow |
|---|---|---|---|---|---|---|---|
| 1777850750 | 10° C | 44% | 1006.9 hPa | 0 mm | - | - | - |
| 1777850501 | 10.56° C | 44% | 1006.9 hPa | 0 mm | - | - | - |
| 1777850052 | 10.56° C | 42% | 1006.9 hPa | 0 mm | - | - | - |
| 1777849926 | 10.56° C | 41% | 1006.7 hPa | 0 mm | - | - | - |
| 1777849676 | 10.56° C | 43% | 1006.8 hPa | 0 mm | - | - | - |
| 1777848437 | 11.11° C | 43% | 1006.7 hPa | 0 mm | - | - | - |
| 1777848316 | 11.11° C | 40% | 1006.6 hPa | 0 mm | - | - | - |
| 1777848189 | 11.11° C | 41% | 1006.6 hPa | 0 mm | - | - | - |
| 1777845514 | 11.67° C | 42% | 1005.9 hPa | 0 mm | - | - | - |
| 1777845389 | 11.67° C | 41% | 1005.9 hPa | 0 mm | - | - | - |
| 1777844896 | 11.67° C | 40% | 1005.8 hPa | 0 mm | - | - | - |
| 1777844521 | 12.22° C | 40% | 1005.6 hPa | 0 mm | - | - | - |
| 1777842377 | 11.67° C | 42% | 1005.6 hPa | 0 mm | - | - | - |
| 1777840266 | 12.22° C | 43% | 1005.1 hPa | 0 mm | - | - | - |
| 1777840137 | 12.78° C | 44% | 1005.1 hPa | 0 mm | - | - | - |
| 1777839882 | 12.78° C | 43% | 1005.2 hPa | 0 mm | - | - | - |
| 1777839752 | 12.78° C | 43% | 1005 hPa | 0 mm | - | - | - |
| 1777839175 | 13.33° C | 39% | 1005 hPa | 0 mm | - | - | - |
| 1777839051 | 13.89° C | 40% | 1005 hPa | 0 mm | - | - | - |
| 1777837737 | 12.78° C | 46% | 1005 hPa | 0 mm | - | - | - |
| 1777837375 | 12.22° C | 50% | 1005.1 hPa | 0 mm | - | - | - |
| 1777836740 | 12.22° C | 47% | 1005.1 hPa | 0 mm | - | - | - |
| 1777835270 | 12.22° C | 46% | 1005.2 hPa | 0 mm | - | - | - |
| 1777834402 | 12.22° C | 46% | 1005.3 hPa | 0 mm | - | - | - |
| 1777834274 | 11.67° C | 48% | 1005.4 hPa | 0 mm | - | - | - |
* Rain latest hour (hover to see other rain measurements)
** Current wind speed in m/s (hover to see current wind gust speed)